Hibernia, South Carolina
Current Conditions -  °F | °C
As of 8:35 PM on Wednesday 26 Nov 2014 (Local Time) from KAIK Reporting Station
Clear Clear  
Wind Chill: 42°   Ceiling: Unl
Heat Index: 45°   Visibility: 10mi
Dew Point: 34°   Wind: 5mph
Humidity: 66%   Direction: 230°SW
Pressure: 30.11"   Gusts: NA
Location:  33.7495°N, 81.5464°W
Report Text: KAIK 270135Z AUTO 23004KT 10SM CLR 07/01 A3011 RMK AO2 PNO
Loading
Personal Weather Stations






























Interactive Weather Map New forecast layout! Learn more

10-Day Weather Forecast

Advertisements
Track Severe Weather on mobile